Tiempo atmosférico en la estación meteorológica de Fonfría, Teruel (1262 m.)

Fecha
DESCASC
Temp. máxima en grados centígrados (hora)
DESCASC
Temp. mínima en grados centígrados (hora)
DESCASC
Temp. media en grados centígrados
DESCASC
Racha de viento máxima en m/sg (hora)
DESCASC
Velocidad máxima media en intervalos de 10 minutos(hora)
DESCASC
Precipitaciones diarias en mm
DESCASC
Precipitaciones de 00:00 a 06:00 en mm
DESCASC
Precipitaciones de 06:00 a 12:00 en mm
DESCASC
Precipitaciones de 12:00 a 18:00 en mm
DESCASC
Precipitaciones de 18:00 a 24:00 en mm
DESCASC
17-08-2017 30.4 (16:50) 15.5 (07:30) 22.9 9.17 (17:40) 5 (19:00) 0 0 0 0 0
16-08-2017 27.2 (16:30) 16.9 (07:40) 22.1 8.61 (00:20) 7.22 (00:30) 0 0 0 0 0
15-08-2017 32.4 (14:20) 17.7 (00:00) 25.1 10.83 (09:00) 8.33 (04:10) 0 0 0 0 0
14-08-2017 31.7 (16:20) 16.4 (06:30) 24.1 11.67 (00:20) 8.89 (00:20) 0 0 0 0 0
13-08-2017 26.9 (14:50) 13 (00:00) 19.9 11.67 (20:30) 7.78 (23:59) 0 0 0 0 0
12-08-2017 24.3 (15:10) 9.7 (00:00) 17 9.17 (02:00) 6.11 (01:40) 0 0 0 0 0
11-08-2017 21.3 (17:20) 5.2 (00:00) 13.2 9.17 (11:20) 6.11 (11:20) 0 0 0 0 0
10-08-2017 17.2 (16:40) 6.3 (00:00) 11.8 13.33 (00:30) 8.89 (00:40) 0 0 0 0 0
09-08-2017 16.2 (13:40) 8.2 (00:00) 12.2 11.67 (22:10) 7.22 (18:00) 0 0 0 0 0
08-08-2017 23.4 (00:00) 10.5 (00:00) 16.9 9.72 (18:00) 6.39 (18:00) 0 0 0 0 0
07-08-2017 33.5 (16:30) 16.6 (00:00) 25.1 15.56 (18:30) 9.44 (04:30) 0 0 0 0 0
06-08-2017 25.4 (17:10) 11.4 (00:00) 18.4 8.89 (17:20) 5.28 (18:50) 0 0 0 0 0
05-08-2017 30.6 (11:10) 15.8 (00:00) 23.2 8.89 (14:40) 6.11 (07:10) 0 0 0 0 0
04-08-2017 31.2 (16:00) 17.8 (00:00) 24.5 8.06 (01:40) 7.22 (01:40) 0 0 0 0 0
03-08-2017 33 (18:20) 19.1 (00:00) 26.1 9.44 (02:00) 7.5 (01:40) 0 0 0 0 0
02-08-2017 27.1 (18:40) 16.6 (00:00) 21.9 14.44 (15:00) 8.33 (10:50) 5.4 0 0 5.4 0
01-08-2017 27.5 (16:50) 17.3 (00:00) 22.4 8.89 (17:50) 6.11 (17:40) 0 0 0 0 0
31-07-2017 34.6 (14:50) 18.3 (00:00) 26.4 13.89 (14:00) 8.33 (14:00) 0 0 0 0 0
30-07-2017 34.5 (16:00) 19.2 (00:00) 26.9 15 (15:10) 6.67 (15:20) 0 0 0 0 0
29-07-2017 33 (14:30) 16.4 (00:00) 24.7 11.67 (20:20) 6.67 (06:50) 0 0 0 0 0
28-07-2017 29.2 (16:10) 17 (00:00) 23.1 7.78 (17:10) 5.28 (19:50) 0 0 0 0 0
27-07-2017 31.8 (17:20) 14.5 (00:00) 23.1 9.44 (13:10) 6.39 (06:30) 0 0 0 0 0
26-07-2017 25.2 (16:30) 9.1 (00:00) 17.2 10.28 (11:50) 7.5 (11:40) 0 0 0 0 0
25-07-2017 19.8 (15:30) 9.3 (00:00) 14.5 13.61 (07:40) 10 (11:10) 0 0 0 0 0
24-07-2017 21.8 (16:50) 12.1 (00:00) 16.9 13.89 (20:50) 9.44 (21:00) 0 0 0 0 0
23-07-2017 25.3 (18:10) 13.4 (00:00) 19.3 6.11 (10:50) 3.89 (13:20) 0.4 0 0 0.4 0
22-07-2017 29.7 (14:20) 14.3 (00:00) 22 8.89 (13:10) 6.94 (03:10) 0 0 0 0 0

Gráficas

Temp. máximas Temp. mínimas Temp. medias Precipitaciones Rachas de viento máximas Velocidades máximas media en intervalos de 10 minutos

Datos horarios

Fecha y hora oficial Temperatura (ºC) Velocidad del viento (km/h) Dirección del viento Racha (km/h) Dirección de racha Precipitación (mm) Presión (hPa) Tendencia (hPa) Humedad (%)
2017-08-20 23:00:00 17.1 4 Sur 8 Sur 0 -- -- 36
2017-08-20 22:00:00 18.7 2 Sur 12 Nordeste 0 -- -- 31
2017-08-20 21:00:00 20.2 8 Nordeste 22 Nordeste 0 -- -- 29
2017-08-20 20:00:00 23.1 12 Norte 19 Nordeste 0 -- -- 25
2017-08-20 19:00:00 25.5 10 Nordeste 23 Nordeste 0 -- -- 24
2017-08-20 18:00:00 26 15 Nordeste 24 Nordeste 0 -- -- 24
2017-08-20 17:00:00 26.6 8 Nordeste 25 Nordeste 0 -- -- 22
2017-08-20 16:00:00 26.1 15 Nordeste 30 Nordeste 0 -- -- 20
2017-08-20 15:00:00 26.9 12 Este 20 Este 0 -- -- 17
2017-08-20 14:00:00 26.3 9 Este 19 Nordeste 0 -- -- 19
2017-08-20 13:00:00 24.7 6 Norte 18 Nordeste 0 -- -- 22
2017-08-20 12:00:00 23.4 7 Nordeste 19 Norte 0 -- -- 19
2017-08-20 11:00:00 22.1 3 Norte 18 Norte 0 -- -- 22
2017-08-20 10:00:00 19.3 6 Noroeste 14 Noroeste 0 -- -- 20
2017-08-20 09:00:00 16.7 8 Noroeste 13 Norte 0 -- -- 25
2017-08-20 08:00:00 15.8 3 Sur 8 Norte 0 -- -- 35
2017-08-20 07:00:00 15.1 0 Calma 6 Noroeste 0 -- -- 51
2017-08-20 06:00:00 14.5 2 Oeste 18 Noroeste 0 -- -- 56
2017-08-20 05:00:00 13.9 7 Oeste 12 Noroeste 0 -- -- 66
2017-08-20 04:00:00 14.2 2 Noroeste 6 Oeste 0 -- -- 67
2017-08-20 03:00:00 13.8 2 Noroeste 8 Noroeste 0 -- -- 67
2017-08-20 02:00:00 13.8 2 Noroeste 10 Noroeste 0 -- -- 68
2017-08-20 01:00:00 14 6 Noroeste 10 Noroeste 0 -- -- 67
2017-08-20 00:00:00 15.1 8 Noroeste 12 Noroeste 0 -- -- 63
2017-08-19 23:00:00 16.9 3 Oeste 9 Norte 0 -- -- 56
2017-08-19 22:00:00 18.4 3 Sudoeste 10 Norte 0 -- -- 49
2017-08-19 21:00:00 20 6 Nordeste 18 Nordeste 0 -- -- 46
2017-08-19 20:00:00 22.6 12 Nordeste 21 Nordeste 0 -- -- 44
2017-08-19 19:00:00 23.8 15 Nordeste 23 Nordeste 0 -- -- 42
2017-08-19 18:00:00 24.7 14 Nordeste 26 Nordeste 0 -- -- 41
2017-08-19 17:00:00 25.2 12 Nordeste 21 Este 0 -- -- 41
2017-08-19 16:00:00 24.9 12 Nordeste 35 Este 0 -- -- 42
2017-08-19 15:00:00 24 15 Nordeste 27 Nordeste 0 -- -- 43
2017-08-19 14:00:00 24 13 Este 25 Este 0 -- -- 42
2017-08-19 13:00:00 23.6 12 Este 19 Este 0 -- -- 42
2017-08-19 12:00:00 22.1 9 Nordeste 17 Nordeste 0 -- -- 47
2017-08-19 11:00:00 20 8 Norte 17 Norte 0 -- -- 53
2017-08-19 10:00:00 18.2 9 Noroeste 19 Norte 0 -- -- 58
2017-08-19 09:00:00 16.4 8 Noroeste 17 Norte 0 -- -- 65
2017-08-19 08:00:00 13.8 8 Noroeste 20 Noroeste 0 -- -- 74
2017-08-19 07:00:00 13.5 16 Noroeste 24 Noroeste 0 -- -- 75
2017-08-19 06:00:00 13.7 11 Noroeste 30 Noroeste 0 -- -- 74
2017-08-19 05:00:00 13.8 16 Noroeste 25 Noroeste 0 -- -- 79
2017-08-19 04:00:00 14.5 9 Noroeste 13 Norte 0 -- -- 71
2017-08-19 03:00:00 15.2 7 Noroeste 30 Noroeste 0 -- -- 68
2017-08-19 02:00:00 14.7 13 Noroeste 28 Noroeste 0 -- -- 76
2017-08-19 01:00:00 14.7 14 Noroeste 25 Noroeste 0 -- -- 82
2017-08-19 00:00:00 15.4 9 Noroeste 25 Noroeste 0 -- -- 84
2017-08-18 23:00:00 16 10 Noroeste 22 Noroeste 0 -- -- 82
2017-08-18 22:00:00 16.6 15 Noroeste 26 Noroeste 0 -- -- 79
2017-08-18 21:00:00 18.4 14 Noroeste 27 Noroeste 0 -- -- 69
2017-08-18 20:00:00 21.2 14 Norte 27 Norte 0 -- -- 63
2017-08-18 19:00:00 23.9 17 Norte 30 Norte 0 -- -- 53
2017-08-18 18:00:00 26.2 17 Nordeste 29 Nordeste 0 -- -- 48
2017-08-18 17:00:00 26.9 20 Nordeste 35 Nordeste 0 -- -- 49
2017-08-18 16:00:00 26.9 18 Nordeste 40 Norte 0 -- -- 50
2017-08-18 15:00:00 31.1 20 Norte 39 Norte 0 -- -- 41
2017-08-18 14:00:00 32.4 10 Noroeste 25 Oeste 0 -- -- 32
2017-08-18 13:00:00 30.9 9 Oeste 21 Sur 0 -- -- 36
2017-08-18 12:00:00 30.4 6 Sudoeste 21 Noroeste 0 -- -- 35
2017-08-18 11:00:00 28.9 8 Oeste 24 Sur 0 -- -- 41
2017-08-18 10:00:00 26.3 19 Sudoeste 32 Sudoeste 0 -- -- 46
2017-08-18 09:00:00 22.6 26 Sudoeste 32 Sudoeste 0 -- -- 57
2017-08-18 08:00:00 19.6 26 Sudoeste 33 Sudoeste 0 -- -- 70
2017-08-18 07:00:00 18.1 27 Sudoeste 31 Sudoeste 0 -- -- 80
2017-08-18 06:00:00 18.3 26 Sudoeste 31 Sudoeste 0 -- -- 79
2017-08-18 05:00:00 19.3 26 Sudoeste 33 Sudoeste 0 -- -- 75
2017-08-18 04:00:00 19.2 30 Sudoeste 39 Sudoeste 0 -- -- 74
2017-08-18 03:00:00 20.1 31 Sudoeste 37 Sudoeste 0 -- -- 69
2017-08-18 02:00:00 20.4 26 Sudoeste 32 Sudoeste 0 -- -- 66
2017-08-18 01:00:00 21.4 26 Sudoeste 36 Sudoeste 0 -- -- 61
2017-08-18 00:00:00 22.2 17 Sur 26 Sur 0 -- -- 56
2017-08-17 23:00:00 22.5 3 Sur 14 Sudeste 0 -- -- 45
2017-08-17 22:00:00 23.6 10 Sudeste 15 Sudeste 0 -- -- 42
2017-08-17 21:00:00 25 7 Este 24 Este 0 -- -- 38
2017-08-17 20:00:00 27.8 14 Este 28 Este 0 -- -- 33
2017-08-17 19:00:00 29.2 18 Este 27 Este 0 -- -- 30
2017-08-17 18:00:00 29.7 14 Este 33 Este 0 -- -- 28
2017-08-17 17:00:00 30 16 Este 29 Nordeste 0 -- -- 29
2017-08-17 16:00:00 29.7 12 Nordeste 23 Este 0 -- -- 29
2017-08-17 15:00:00 29.6 12 Nordeste 23 Sudeste 0 -- -- 29
2017-08-17 14:00:00 29.4 11 Este 23 Sudeste 0 -- -- 30
2017-08-17 13:00:00 28.4 10 Este 21 Este 0 -- -- 30
2017-08-17 12:00:00 27.3 12 Este 20 Este 0 -- -- 33
2017-08-17 11:00:00 26.1 9 Este 15 Este 0 -- -- 32
2017-08-17 10:00:00 24.3 9 Este 14 Sudeste 0 -- -- 33
2017-08-17 09:00:00 21.5 3 Nordeste 5 Nordeste 0 -- -- 39
2017-08-17 08:00:00 17 0 Calma 9 Sur 0 -- -- 48
2017-08-17 07:00:00 16.3 0 Calma 5 Sudoeste 0 -- -- 41
2017-08-17 06:00:00 16.2 4 Oeste 9 Noroeste 0 -- -- 41
2017-08-17 05:00:00 16.3 7 Noroeste 12 Noroeste 0 -- -- 38
2017-08-17 04:00:00 16.5 7 Noroeste 12 Noroeste 0 -- -- 43
2017-08-17 03:00:00 16.7 0 Calma 10 Noroeste 0 -- -- 44
2017-08-17 02:00:00 16.7 8 Noroeste 12 Noroeste 0 -- -- 44
2017-08-17 01:00:00 17 6 Noroeste 15 Noroeste 0 -- -- 53
2017-08-17 00:00:00 17.6 11 Noroeste 15 Noroeste 0 -- -- 60
2017-08-16 23:00:00 19.4 9 Noroeste 22 Norte 0 -- -- 66
2017-08-16 22:00:00 21 8 Norte 16 Norte 0 -- -- 56
2017-08-16 21:00:00 22.9 9 Este 21 Nordeste 0 -- -- 54
2017-08-16 20:00:00 25 12 Nordeste 29 Nordeste 0 -- -- 50
2017-08-16 19:00:00 26.2 13 Nordeste 25 Este 0 -- -- 48
2017-08-16 18:00:00 26.8 13 Nordeste 28 Nordeste 0 -- -- 45
2017-08-16 17:00:00 27 14 Nordeste 28 Nordeste 0 -- -- 47
2017-08-16 16:00:00 26.8 15 Nordeste 26 Nordeste 0 -- -- 47
2017-08-16 15:00:00 26.4 10 Nordeste 25 Nordeste 0 -- -- 49
2017-08-16 14:00:00 27 12 Este 23 Nordeste 0 -- -- 50
2017-08-16 13:00:00 27 17 Norte 23 Norte 0 -- -- 37
2017-08-16 12:00:00 25 13 Norte 22 Noroeste 0 -- -- 46
2017-08-16 11:00:00 24.1 15 Norte 23 Norte 0 -- -- 51
2017-08-16 10:00:00 23.3 5 Nordeste 9 Sur 0 -- -- 51
2017-08-16 09:00:00 19.5 8 Sudoeste 17 Sudoeste 0 -- -- 67
2017-08-16 08:00:00 17.1 18 Sudoeste 21 Sudoeste 0 -- -- 76
2017-08-16 07:00:00 17.5 18 Sudoeste 20 Sudoeste 0 -- -- 75
2017-08-16 06:00:00 17.8 16 Sudoeste 22 Sudoeste 0 -- -- 74
2017-08-16 05:00:00 17.5 15 Sudoeste 24 Sudoeste 0 -- -- 74
2017-08-16 04:00:00 17.8 19 Sudoeste 22 Sudoeste 0 -- -- 74
2017-08-16 03:00:00 18.3 14 Sudoeste 18 Sudoeste 0 -- -- 72
2017-08-16 02:00:00 18.1 8 Sur 12 Sur 0 -- -- 72
2017-08-16 01:00:00 20 3 Sudeste 31 Sudoeste 0 -- -- 65
2017-08-16 00:00:00 20.4 25 Sudoeste 32 Sur 0 -- -- 66
2017-08-15 23:00:00 21.5 25 Sur 32 Sur 0 -- -- 64
2017-08-15 22:00:00 21.3 27 Sur 34 Sur 0 -- -- 64
2017-08-15 21:00:00 22 23 Sur 32 Sur 0 -- -- 58
2017-08-15 20:00:00 24.5 10 Sudeste 22 Este 0 -- -- 47
2017-08-15 19:00:00 25.7 14 Este 22 Este 0 -- -- 45
2017-08-15 18:00:00 24.5 16 Sudeste 27 Este 0 -- -- 48
2017-08-15 17:00:00 25.7 14 Este 31 Este 0 -- -- 49
2017-08-15 16:00:00 24.5 19 Este 35 Sudeste 0 -- -- 49
2017-08-15 15:00:00 26.2 24 Sudeste 37 Este 0 -- -- 40
2017-08-15 14:00:00 31.7 8 Norte 30 Oeste 0 -- -- 31
2017-08-15 13:00:00 30.1 8 Sur 21 Oeste 0 -- -- 32
2017-08-15 12:00:00 28 8 Oeste 22 Sudoeste 0 -- -- 34
2017-08-15 11:00:00 27.2 16 Sudoeste 31 Sudoeste 0 -- -- 35
2017-08-15 10:00:00 24.2 27 Sudoeste 35 Sudoeste 0 -- -- 38
2017-08-15 09:00:00 20.2 30 Sudoeste 39 Sudoeste 0 -- -- 40
2017-08-15 08:00:00 18.3 26 Sudoeste 35 Sudoeste 0 -- -- 44
2017-08-15 07:00:00 17.7 26 Sudoeste 32 Sudoeste 0 -- -- 46
2017-08-15 06:00:00 18.6 26 Sudoeste 39 Sur 0 -- -- 45
2017-08-15 05:00:00 18.9 28 Sudoeste 37 Sudoeste 0 -- -- 44
2017-08-15 04:00:00 19.1 28 Sudoeste 36 Sudoeste 0 -- -- 43
2017-08-15 03:00:00 19.3 27 Sudoeste 35 Sudoeste 0 -- -- 42
2017-08-15 02:00:00 19.7 25 Sudoeste 35 Sudoeste 0 -- -- 43
2017-08-15 01:00:00 19.9 23 Sudoeste 30 Sudoeste 0 -- -- 50
2017-08-15 00:00:00 20.8 20 Sudoeste 34 Sur 0 -- -- 48
2017-08-14 23:00:00 21.5 20 Sur 37 Sur 0 -- -- 48
2017-08-14 22:00:00 22.8 23 Sur 37 Sur 0 -- -- 44
2017-08-14 21:00:00 24.2 15 Sur 25 Sudeste 0 -- -- 43
2017-08-14 20:00:00 26.2 17 Sudeste 31 Sudeste 0 -- -- 37
2017-08-14 19:00:00 26.7 19 Este 33 Este 0 -- -- 35
2017-08-14 18:00:00 28.1 22 Este 36 Este 0 -- -- 27
2017-08-14 17:00:00 29.8 22 Este 41 Sudeste 0 -- -- 26
2017-08-14 16:00:00 31.2 8 Sudeste 32 Este 0 -- -- 22
2017-08-14 15:00:00 30.5 9 Sudeste 29 Sudoeste 0 -- -- 22
2017-08-14 14:00:00 30 13 Sur 26 Sudoeste 0 -- -- 23
2017-08-14 13:00:00 29.3 12 Sudoeste 27 Sudoeste 0 -- -- 27
2017-08-14 12:00:00 28.2 16 Sudoeste 29 Sudoeste 0 -- -- 29
2017-08-14 11:00:00 25.9 24 Sudoeste 32 Sudoeste 0 -- -- 33
2017-08-14 10:00:00 23.8 24 Sudoeste 33 Sudoeste 0 -- -- 36
2017-08-14 09:00:00 21.1 28 Sudoeste 36 Sudoeste 0 -- -- 41
2017-08-14 08:00:00 18 27 Sudoeste 35 Sudoeste 0 -- -- 49
2017-08-14 07:00:00 17.2 31 Sudoeste 36 Sudoeste 0 -- -- 52
2017-08-14 06:00:00 17 29 Sudoeste 37 Sudoeste 0 -- -- 54
2017-08-14 05:00:00 17.4 30 Sudoeste 36 Sudoeste 0 -- -- 53
2017-08-14 04:00:00 17.2 29 Sudoeste 36 Sudoeste 0 -- -- 58
2017-08-14 03:00:00 17.9 29 Sudoeste 37 Sudoeste 0 -- -- 57
2017-08-14 02:00:00 18 27 Sudoeste 36 Sudoeste 0 -- -- 61
2017-08-14 01:00:00 18.3 28 Sudoeste 42 Sur 0 -- -- 65
2017-08-14 00:00:00 19.7 28 Sur 40 Sur 0 -- -- 61
2017-08-13 23:00:00 20.5 22 Sur 32 Sur 0 -- -- 59
2017-08-13 22:00:00 20.4 20 Sur 28 Sur 0 -- -- 60
2017-08-13 21:00:00 21.2 11 Sudeste 42 Sudeste 0 -- -- 57
2017-08-13 20:00:00 24.2 18 Este 30 Este 0 -- -- 37
2017-08-13 19:00:00 25 19 Este 34 Este 0 -- -- 36
2017-08-13 18:00:00 25.4 16 Este 33 Este 0 -- -- 35
2017-08-13 17:00:00 26.6 18 Este 31 Nordeste 0 -- -- 35
2017-08-13 16:00:00 26.2 18 Nordeste 31 Este 0 -- -- 35
2017-08-13 15:00:00 26.6 14 Este 29 Este 0 -- -- 35
2017-08-13 14:00:00 26.4 10 Este 22 Este 0 -- -- 35
2017-08-13 13:00:00 24.7 14 Nordeste 21 Nordeste 0 -- -- 38
2017-08-13 12:00:00 25.9 8 Oeste 18 Sudoeste 0 -- -- 37
2017-08-13 11:00:00 24.5 9 Sudeste 18 Sudeste 0 -- -- 36
2017-08-13 10:00:00 21.8 9 Sudeste 17 Sudeste 0 -- -- 40
2017-08-13 09:00:00 19 3 Sudeste 6 Este 0 -- -- 51
2017-08-13 08:00:00 16.2 2 Este 5 Sur 0 -- -- 56
2017-08-13 07:00:00 13.3 4 Sur 9 Sur 0 -- -- 61
2017-08-13 06:00:00 13.3 6 Sur 8 Sur 0 -- -- 61
2017-08-13 05:00:00 14.2 4 Sur 7 Sudoeste 0 -- -- 56
2017-08-13 04:00:00 14.1 0 Calma 5 Sudoeste 0 -- -- 57
2017-08-13 03:00:00 14.6 2 Oeste 6 Oeste 0 -- -- 55
2017-08-13 02:00:00 15.6 3 Sur 7 Sudoeste 0 -- -- 47
2017-08-13 01:00:00 15.8 3 Sudeste 7 Sudeste 0 -- -- 45
2017-08-13 00:00:00 16.1 5 Sur 8 Sur 0 -- -- 42
2017-08-12 23:00:00 16.5 4 Sudeste 6 Sudeste 0 -- -- 42
2017-08-12 22:00:00 18.6 2 Noroeste 10 Norte 0 -- -- 37
2017-08-12 21:00:00 20.2 4 Norte 16 Norte 0 -- -- 32
2017-08-12 20:00:00 22.8 9 Nordeste 22 Nordeste 0 -- -- 30
2017-08-12 19:00:00 23.6 10 Nordeste 24 Nordeste 0 -- -- 30
2017-08-12 18:00:00 22.5 14 Nordeste 26 Nordeste 0 -- -- 33
2017-08-12 17:00:00 23.2 12 Nordeste 24 Nordeste 0 -- -- 32
2017-08-12 16:00:00 23.9 14 Norte 27 Norte 0 -- -- 30
2017-08-12 15:00:00 24 13 Norte 24 Nordeste 0 -- -- 25
2017-08-12 14:00:00 23.6 11 Nordeste 22 Norte 0 -- -- 23
2017-08-12 13:00:00 23.2 5 Noroeste 17 Noroeste 0 -- -- 26
2017-08-12 12:00:00 21.8 7 Norte 17 Nordeste 0 -- -- 27
2017-08-12 11:00:00 20.3 9 Noroeste 17 Noroeste 0 -- -- 27
2017-08-12 10:00:00 18 9 Norte 13 Norte 0 -- -- 33
2017-08-12 09:00:00 16.1 3 Este 9 Oeste 0 -- -- 42
2017-08-12 08:00:00 13 8 Noroeste 21 Oeste 0 -- -- 47
2017-08-12 07:00:00 10 4 Norte 14 Oeste 0 -- -- 60
2017-08-12 06:00:00 10.7 2 Nordeste 21 Noroeste 0 -- -- 55
2017-08-12 05:00:00 11 13 Noroeste 21 Noroeste 0 -- -- 54
2017-08-12 04:00:00 10.9 5 Oeste 13 Oeste 0 -- -- 50
2017-08-12 03:00:00 12.3 4 Norte 23 Noroeste 0 -- -- 46
2017-08-12 02:00:00 12.8 19 Noroeste 33 Noroeste 0 -- -- 47
2017-08-12 01:00:00 12.3 18 Noroeste 30 Noroeste 0 -- -- 54
2017-08-12 00:00:00 12.7 13 Norte 24 Noroeste 0 -- -- 56
2017-08-11 23:00:00 12.2 9 Noroeste 18 Noroeste 0 -- -- 58
2017-08-11 22:00:00 13.2 5 Oeste 17 Oeste 0 -- -- 58
2017-08-11 21:00:00 14.9 8 Noroeste 27 Norte 0 -- -- 51
2017-08-11 20:00:00 17.4 15 Norte 28 Norte 0 -- -- 43
2017-08-11 19:00:00 19.8 16 Norte 26 Norte 0 -- -- 37
2017-08-11 18:00:00 20.6 17 Norte 28 Noroeste 0 -- -- 33
2017-08-11 17:00:00 20.8 15 Norte 24 Noroeste 0 -- -- 33
2017-08-11 16:00:00 20.6 13 Norte 29 Norte 0 -- -- 30
2017-08-11 15:00:00 19.7 13 Norte 26 Noroeste 0 -- -- 35
2017-08-11 14:00:00 19.5 11 Norte 27 Noroeste 0 -- -- 34
2017-08-11 13:00:00 17.9 10 Norte 22 Noroeste 0 -- -- 36
2017-08-11 12:00:00 16.3 14 Noroeste 33 Noroeste 0 -- -- 46
2017-08-11 11:00:00 13.7 20 Norte 30 Norte 0 -- -- 54
2017-08-11 10:00:00 10.4 19 Noroeste 27 Noroeste 0 -- -- 66
2017-08-11 09:00:00 9.7 10 Norte 22 Noroeste 0 -- -- 66
2017-08-11 08:00:00 8.3 10 Noroeste 25 Noroeste 0 -- -- 71
2017-08-11 07:00:00 6.6 12 Noroeste 30 Noroeste 0 -- -- 78
2017-08-11 06:00:00 5.8 17 Noroeste 23 Noroeste 0 -- -- 75
2017-08-11 05:00:00 6.1 2 Noroeste 19 Oeste 0 -- -- 76
2017-08-11 04:00:00 6.9 14 Noroeste 22 Oeste 0 -- -- 75
2017-08-11 03:00:00 7 11 Noroeste 24 Noroeste 0 -- -- 80
2017-08-11 02:00:00 7.6 13 Noroeste 24 Norte 0 -- -- 78
2017-08-11 01:00:00 8 11 Noroeste 31 Noroeste 0 -- -- 85
2017-08-11 00:00:00 8.9 21 Norte 33 Norte 0 -- -- 87
2017-08-10 23:00:00 9.6 23 Norte 38 Norte 0 -- -- 82
2017-08-10 22:00:00 10.7 21 Norte 38 Norte 0 -- -- 78
2017-08-10 21:00:00 12 21 Norte 38 Norte 0 -- -- 73
2017-08-10 20:00:00 14.8 21 Norte 37 Norte 0 -- -- 60
2017-08-10 19:00:00 15.6 18 Norte 35 Norte 0 -- -- 58
2017-08-10 18:00:00 16.1 26 Norte 38 Norte 0 -- -- 55
2017-08-10 17:00:00 17 24 Noroeste 43 Norte 0 -- -- 52
2017-08-10 16:00:00 16.3 28 Norte 42 Noroeste 0 -- -- 55
2017-08-10 15:00:00 16.7 24 Norte 43 Norte 0 -- -- 54
2017-08-10 14:00:00 16.2 27 Norte 42 Norte 0 -- -- 54
2017-08-10 13:00:00 15.3 24 Norte 39 Norte 0 -- -- 55
2017-08-10 12:00:00 14.1 27 Norte 40 Noroeste 0 -- -- 57
2017-08-10 11:00:00 12.9 26 Norte 41 Noroeste 0 -- -- 62
2017-08-10 10:00:00 10.2 27 Noroeste 40 Norte 0 -- -- 75
2017-08-10 09:00:00 8.7 22 Norte 40 Norte 0 -- -- 84
2017-08-10 08:00:00 7.8 26 Norte 38 Noroeste 0 -- -- 88
2017-08-10 07:00:00 7.2 25 Norte 40 Norte 0 -- -- 90
2017-08-10 06:00:00 6.5 26 Norte 40 Noroeste 0 -- -- 92
2017-08-10 05:00:00 6.5 21 Norte 36 Norte 0 -- -- 90
2017-08-10 04:00:00 6.4 27 Norte 41 Noroeste 0 -- -- 90
2017-08-10 03:00:00 6.7 21 Norte 35 Norte 0 -- -- 89
2017-08-10 02:00:00 7.3 15 Norte 35 Norte 0 -- -- 86
2017-08-10 01:00:00 7.9 25 Norte 48 Norte 0 -- -- 84
2017-08-10 00:00:00 8.8 22 Norte 42 Norte 0 -- -- 78
2017-08-09 23:00:00 9.6 24 Norte 42 Norte 0 -- -- 69
2017-08-09 22:00:00 10.2 24 Norte 35 Norte 0 -- -- 70
2017-08-09 21:00:00 10.3 19 Norte 35 Norte 0 -- -- 72
2017-08-09 20:00:00 10.4 22 Norte 36 Norte 0 -- -- 71
2017-08-09 19:00:00 11.1 22 Norte 39 Norte 0 -- -- 74
2017-08-09 18:00:00 12.3 26 Norte 39 Norte 0 -- -- 68
2017-08-09 17:00:00 13.8 19 Norte 39 Norte 0 -- -- 67
2017-08-09 16:00:00 13.6 20 Norte 41 Nordeste 0 -- -- 65
2017-08-09 15:00:00 14.8 22 Norte 37 Nordeste 0 -- -- 61
2017-08-09 14:00:00 15.5 19 Nordeste 33 Nordeste 0 -- -- 61
2017-08-09 13:00:00 15.6 16 Nordeste 27 Nordeste 0 -- -- 61
2017-08-09 12:00:00 13.6 15 Nordeste 24 Nordeste 0 -- -- 69
2017-08-09 11:00:00 12.9 10 Nordeste 16 Norte 0 -- -- 71
2017-08-09 10:00:00 13.5 4 Nordeste 11 Norte 0 -- -- 70
2017-08-09 09:00:00 11.4 3 Noroeste 9 Norte 0 -- -- 74
2017-08-09 08:00:00 10 4 Noroeste 6 Noroeste 0 -- -- 80
2017-08-09 07:00:00 8.2 5 Sur 7 Sudeste 0 -- -- 82
2017-08-09 06:00:00 9.6 3 Sudeste 5 Sur 0 -- -- 78
2017-08-09 05:00:00 8.9 2 Sudeste 8 Sur 0 -- -- 81
2017-08-09 04:00:00 8.9 2 Sudeste 9 Sur 0 -- -- 81
2017-08-09 03:00:00 8.6 5 Sur 8 Sur 0 -- -- 82
2017-08-09 02:00:00 9.1 0 Calma 9 Noroeste 0 -- -- 83
2017-08-09 01:00:00 9.7 7 Oeste 10 Oeste 0 -- -- 79
2017-08-09 00:00:00 10.5 2 Sur 6 Noroeste 0 -- -- 75
2017-08-08 23:00:00 11.7 5 Noroeste 19 Noroeste 0 -- -- 70
2017-08-08 22:00:00 12.9 8 Noroeste 31 Noroeste 0 -- -- 64
2017-08-08 21:00:00 14.8 19 Noroeste 28 Norte 0 -- -- 53
2017-08-08 20:00:00 17.5 17 Norte 32 Norte 0 -- -- 47
2017-08-08 19:00:00 19.1 23 Norte 31 Norte 0 -- -- 42
2017-08-08 18:00:00 19.8 23 Norte 35 Norte 0 -- -- 41
2017-08-08 17:00:00 20.4 17 Nordeste 30 Norte 0 -- -- 44
2017-08-08 16:00:00 20.9 15 Norte 33 Noroeste 0 -- -- 42
2017-08-08 15:00:00 21.1 13 Norte 26 Noroeste 0 -- -- 41
2017-08-08 14:00:00 20.3 12 Noroeste 29 Noroeste 0 -- -- 44
2017-08-08 13:00:00 18.4 14 Norte 28 Noroeste 0 -- -- 55
2017-08-08 12:00:00 16.6 16 Norte 27 Norte 0 -- -- 63
2017-08-08 11:00:00 15.7 16 Norte 27 Norte 0 -- -- 69
2017-08-08 10:00:00 13.6 19 Norte 35 Norte 0 -- -- 79
2017-08-08 09:00:00 12 20 Norte 32 Norte 0 -- -- 89
2017-08-08 08:00:00 11.6 14 Norte 28 Norte 0 -- -- 91
2017-08-08 07:00:00 11.8 14 Norte 26 Norte 0 -- -- 94
2017-08-08 06:00:00 13.2 9 Norte 15 Norte 0 -- -- 93
2017-08-08 05:00:00 13.5 9 Norte 14 Norte 0 -- -- 93
2017-08-08 04:00:00 14.3 9 Noroeste 18 Noroeste 0 -- -- 84
2017-08-08 03:00:00 19.8 4 Sudoeste 13 Sudoeste 0 -- -- 34
2017-08-08 02:00:00 20.9 6 Sudoeste 15 Noroeste 0 -- -- 31
2017-08-08 01:00:00 23.1 10 Noroeste 20 Oeste 0 -- -- 25
2017-08-08 00:00:00 23.4 5 Sudoeste 14 Oeste 0 -- -- 24
2017-08-07 23:00:00 25.6 6 Oeste 23 Noroeste 0 -- -- 22
2017-08-07 22:00:00 26.6 11 Oeste 32 Oeste 0 -- -- 21
2017-08-07 21:00:00 27.9 11 Oeste 34 Noroeste 0 -- -- 20
2017-08-07 20:00:00 30.2 17 Oeste 48 Oeste 0 -- -- 19
2017-08-07 19:00:00 30.6 24 Oeste 56 Oeste 0 -- -- 18
2017-08-07 18:00:00 31.7 22 Oeste 51 Oeste 0 -- -- 18
2017-08-07 17:00:00 33.1 22 Oeste 51 Oeste 0 -- -- 19
2017-08-07 16:00:00 33.1 19 Oeste 42 Oeste 0 -- -- 18
2017-08-07 15:00:00 32.4 25 Oeste 45 Oeste 0 -- -- 19
2017-08-07 14:00:00 31.3 22 Sudoeste 44 Sudoeste 0 -- -- 28
2017-08-07 13:00:00 29.7 17 Sudoeste 28 Sudoeste 0 -- -- 33
2017-08-07 12:00:00 27.3 12 Sur 30 Sur 0 -- -- 46
2017-08-07 11:00:00 25.8 15 Sudoeste 31 Sudoeste 0 -- -- 53
2017-08-07 10:00:00 23.3 19 Sur 33 Sur 0 -- -- 62
2017-08-07 09:00:00 20.6 25 Sur 37 Sudoeste 0 -- -- 75
2017-08-07 08:00:00 17.9 32 Sudoeste 37 Sudoeste 0 -- -- 87
2017-08-07 07:00:00 16.6 30 Sudoeste 35 Sudoeste 0 -- -- 92
2017-08-07 06:00:00 17.1 27 Sudoeste 35 Sudoeste 0 -- -- 91
2017-08-07 05:00:00 17.7 27 Sudoeste 42 Sudoeste 0 -- -- 88
2017-08-07 04:00:00 18.5 31 Sudoeste 41 Sur 0 -- -- 86
2017-08-07 03:00:00 18.5 18 Sur 25 Sur 0 -- -- 84
2017-08-07 02:00:00 18.2 7 Sur 13 Sudeste 0 -- -- 76
2017-08-07 01:00:00 19.5 8 Sudeste 13 Sudeste 0 -- -- 65
2017-08-07 00:00:00 18.8 6 Sur 15 Sudeste 0 -- -- 68
2017-08-06 23:00:00 19 7 Sur 12 Sudeste 0 -- -- 64
2017-08-06 22:00:00 19.8 8 Sudeste 21 Este 0 -- -- 60
2017-08-06 21:00:00 21.2 13 Este 27 Este 0 -- -- 58
2017-08-06 20:00:00 23.6 15 Este 29 Este 0 -- -- 53
2017-08-06 19:00:00 24.2 19 Este 32 Este 0 -- -- 50
2017-08-06 18:00:00 24.9 17 Este 32 Nordeste 0 -- -- 49
2017-08-06 17:00:00 25.1 18 Este 29 Nordeste 0 -- -- 49
2017-08-06 16:00:00 24.9 15 Este 29 Este 0 -- -- 49
2017-08-06 15:00:00 23.8 12 Este 27 Nordeste 0 -- -- 51
2017-08-06 14:00:00 22.9 10 Este 21 Este 0 -- -- 52
2017-08-06 13:00:00 20.8 9 Este 20 Este 0 -- -- 58
2017-08-06 12:00:00 19.6 12 Nordeste 21 Nordeste 0 -- -- 58
2017-08-06 11:00:00 18.5 9 Norte 19 Norte 0 -- -- 64
2017-08-06 10:00:00 16.5 10 Noroeste 18 Noroeste 0 -- -- 71
2017-08-06 09:00:00 14.7 14 Noroeste 25 Noroeste 0 -- -- 79
2017-08-06 08:00:00 12.6 15 Noroeste 25 Noroeste 0 -- -- 91
2017-08-06 07:00:00 11.5 15 Noroeste 26 Noroeste 0 -- -- 94
2017-08-06 06:00:00 11.7 12 Noroeste 21 Noroeste 0 -- -- 92
2017-08-06 05:00:00 12.2 9 Noroeste 17 Noroeste 0 -- -- 91
2017-08-06 04:00:00 12.8 8 Oeste 12 Noroeste 0 -- -- 89
2017-08-06 03:00:00 13.3 8 Noroeste 15 Noroeste 0 -- -- 88
2017-08-06 02:00:00 14 4 Oeste 10 Noroeste 0 -- -- 87
2017-08-06 01:00:00 14.8 3 Oeste 12 Noroeste 0 -- -- 85
2017-08-06 00:00:00 15.8 3 Noroeste 12 Oeste 0 -- -- 83
2017-08-05 23:00:00 16.9 5 Noroeste 13 Noroeste 0 -- -- 79
2017-08-05 22:00:00 19.2 5 Noroeste 12 Norte 0 -- -- 71
2017-08-05 21:00:00 21.7 6 Nordeste 20 Nordeste 0 -- -- 65
2017-08-05 20:00:00 25.1 18 Nordeste 28 Nordeste 0 -- -- 57
2017-08-05 19:00:00 28 15 Nordeste 27 Nordeste 0 -- -- 50
2017-08-05 18:00:00 28.4 13 Este 28 Este 0 -- -- 49
2017-08-05 17:00:00 27.7 15 Nordeste 25 Nordeste 0 -- -- 51
2017-08-05 16:00:00 26.5 15 Nordeste 28 Nordeste 0 -- -- 54
2017-08-05 15:00:00 27.3 16 Nordeste 32 Nordeste 0 -- -- 51
2017-08-05 14:00:00 28.6 16 Nordeste 26 Nordeste 0 -- -- 49
2017-08-05 13:00:00 29.4 14 Este 23 Nordeste 0 -- -- 47
2017-08-05 12:00:00 29.2 12 Nordeste 21 Este 0 -- -- 47
2017-08-05 11:00:00 30.2 9 Sudeste 28 Sur 0 -- -- 37
2017-08-05 10:00:00 28.2 18 Sur 26 Sudoeste 0 -- -- 40
2017-08-05 09:00:00 26 5 Sudeste 17 Sur 0 -- -- 46
2017-08-05 08:00:00 22.3 10 Sur 27 Sur 0 -- -- 54
2017-08-05 07:00:00 22.4 21 Sur 27 Sur 0 -- -- 51
2017-08-05 06:00:00 23 19 Sur 27 Sur 0 -- -- 49
2017-08-05 05:00:00 21.8 17 Sur 22 Sur 0 -- -- 55
2017-08-05 04:00:00 21.9 12 Sur 19 Sur 0 -- -- 59
2017-08-05 03:00:00 22.7 15 Sur 19 Sur 0 -- -- 53
2017-08-05 02:00:00 22.9 7 Sur 10 Sudeste 0 -- -- 52
2017-08-05 01:00:00 23.1 7 Sur 12 Sur 0 -- -- 52
2017-08-05 00:00:00 23.5 7 Sur 11 Sudeste 0 -- -- 50
2017-08-04 23:00:00 24 7 Sudeste 12 Sudeste 0 -- -- 50
2017-08-04 22:00:00 24.6 7 Sudeste 15 Este 0 -- -- 48
2017-08-04 21:00:00 27.1 10 Este 19 Este 0 -- -- 42
2017-08-04 20:00:00 29.7 11 Nordeste 22 Nordeste 0 -- -- 38
2017-08-04 19:00:00 30.4 13 Nordeste 26 Nordeste 0 -- -- 37
2017-08-04 18:00:00 31.2 12 Este 22 Este 0 -- -- 36
2017-08-04 17:00:00 30.6 10 Nordeste 27 Nordeste 0 -- -- 37
2017-08-04 16:00:00 31.2 9 Este 24 Nordeste 0 -- -- 35
2017-08-04 15:00:00 30.7 8 Norte 22 Norte 0 -- -- 36
2017-08-04 14:00:00 29.8 8 Norte 24 Noroeste 0 -- -- 34
2017-08-04 13:00:00 29.2 12 Noroeste 22 Noroeste 0 -- -- 36
2017-08-04 12:00:00 28 15 Noroeste 26 Noroeste 0 -- -- 40
2017-08-04 11:00:00 26.2 17 Noroeste 24 Noroeste 0 -- -- 43
2017-08-04 10:00:00 24.4 14 Noroeste 22 Norte 0 -- -- 48
2017-08-04 09:00:00 22.6 20 Noroeste 25 Noroeste 0 -- -- 51
2017-08-04 08:00:00 19.8 10 Noroeste 14 Noroeste 0 -- -- 59
2017-08-04 07:00:00 18.1 4 Noroeste 9 Noroeste 0 -- -- 64
2017-08-04 06:00:00 18.6 3 Noroeste 15 Sudoeste 0 -- -- 65
2017-08-04 05:00:00 19.3 11 Sudoeste 17 Sudoeste 0 -- -- 63
2017-08-04 04:00:00 19.5 6 Oeste 18 Sudoeste 0 -- -- 63
2017-08-04 03:00:00 19 13 Sudoeste 21 Sudoeste 0 -- -- 67
2017-08-04 02:00:00 21.9 10 Oeste 29 Sudoeste 0 -- -- 56
2017-08-04 01:00:00 21.9 23 Sudoeste 26 Sudoeste 0 -- -- 57
2017-08-04 00:00:00 22.9 14 Sur 20 Sur 0 -- -- 47
2017-08-03 23:00:00 22.8 8 Sur 13 Sur 0 -- -- 42
2017-08-03 22:00:00 24.1 10 Sur 14 Sudeste 0 -- -- 42
2017-08-03 21:00:00 26.8 8 Sudeste 22 Este 0 -- -- 40
2017-08-03 20:00:00 29.7 12 Este 25 Este 0 -- -- 33
2017-08-03 19:00:00 32.5 4 Nordeste 20 Sudoeste 0 -- -- 25
2017-08-03 18:00:00 32.9 8 Sudoeste 24 Noroeste 0 -- -- 23
2017-08-03 17:00:00 32.2 8 Sur 19 Sudoeste 0 -- -- 24
2017-08-03 16:00:00 31 9 Nordeste 19 Noroeste 0 -- -- 26
2017-08-03 15:00:00 30.7 8 Noroeste 20 Norte 0 -- -- 28
2017-08-03 14:00:00 29.9 3 Oeste 18 Norte 0 -- -- 29
2017-08-03 13:00:00 29 7 Norte 15 Norte 0 -- -- 32
2017-08-03 12:00:00 27.9 8 Norte 17 Noroeste 0 -- -- 34
2017-08-03 11:00:00 25.9 13 Noroeste 22 Norte 0 -- -- 47
2017-08-03 10:00:00 25.1 13 Noroeste 21 Noroeste 0 -- -- 50
2017-08-03 09:00:00 23.4 7 Norte 14 Noroeste 0 -- -- 56
2017-08-03 08:00:00 20.5 2 Sudoeste 21 Oeste 0 -- -- 62
2017-08-03 07:00:00 20 11 Oeste 20 Sudoeste 0 -- -- 62
2017-08-03 06:00:00 19.8 15 Sudoeste 24 Sudoeste 0 -- -- 62
2017-08-03 05:00:00 19.1 21 Sudoeste 31 Sudoeste 0 -- -- 64
2017-08-03 04:00:00 19.5 24 Sudoeste 31 Sudoeste 0 -- -- 62
2017-08-03 03:00:00 19.1 23 Sudoeste 33 Sudoeste 0 -- -- 65
2017-08-03 02:00:00 19.5 27 Sudoeste 34 Sudoeste 0 -- -- 65
2017-08-03 01:00:00 19.4 26 Sudoeste 31 Sudoeste 0 -- -- 68
2017-08-03 00:00:00 20.1 22 Sudoeste 30 Sudoeste 0 -- -- 67
2017-08-02 23:00:00 21.5 22 Sur 30 Sur 0 -- -- 64
2017-08-02 22:00:00 21.8 18 Sur 27 Sur 0 -- -- 62
2017-08-02 21:00:00 23.4 7 Sur 21 Sudoeste 0 -- -- 59
2017-08-02 20:00:00 26 15 Sur 31 Sur 0 -- -- 52
2017-08-02 19:00:00 27.1 15 Sur 34 Sur 0 -- -- 47
2017-08-02 18:00:00 26.1 17 Sudeste 32 Sudeste 0 -- -- 51
2017-08-02 17:00:00 23.5 17 Sur 36 Sur 0 -- -- 55
2017-08-02 16:00:00 22.1 24 Sur 45 Sur 0 -- -- 57
2017-08-02 15:00:00 17.2 28 Sur 52 Sur 2.6 -- -- 72
2017-08-02 14:00:00 17.9 11 Sudoeste 30 Sur 0.8 -- -- 71
2017-08-02 13:00:00 16.9 10 Sur 30 Sudoeste 2 -- -- 77
2017-08-02 12:00:00 20.2 15 Sudoeste 40 Sudoeste 0 -- -- 57
2017-08-02 11:00:00 20.3 24 Sur 50 Sur 0 -- -- 54
2017-08-02 10:00:00 21.8 15 Sudoeste 43 Sur 0 -- -- 52
2017-08-02 09:00:00 21.3 13 Sur 32 Sur 0 -- -- 54
2017-08-02 08:00:00 20 3 Sur 27 Sudoeste 0 -- -- 59
2017-08-02 07:00:00 19.7 14 Sur 26 Sur 0 -- -- 64
2017-08-02 06:00:00 17.9 8 Sur 21 Sudeste 0 -- -- 71
2017-08-02 05:00:00 19.1 8 Sur 16 Sur 0 -- -- 66
2017-08-02 04:00:00 19.9 9 Sur 22 Sur 0 -- -- 63
2017-08-02 03:00:00 20.4 15 Sur 30 Sur 0 -- -- 61
2017-08-02 02:00:00 19.2 5 Sudoeste 22 Sur 0 -- -- 65
2017-08-02 01:00:00 19.9 8 Sudoeste 19 Sudoeste 0 -- -- 58
2017-08-02 00:00:00 21.1 10 Sur 24 Sudeste 0 -- -- 58
2017-08-01 23:00:00 21.5 13 Sudoeste 23 Sudoeste 0 -- -- 50
2017-08-01 22:00:00 20.4 9 Sur 13 Sudeste 0 -- -- 66
2017-08-01 21:00:00 23.3 4 Este 15 Nordeste 0 -- -- 56
2017-08-01 20:00:00 25.2 10 Nordeste 23 Nordeste 0 -- -- 51
2017-08-01 19:00:00 25.7 18 Nordeste 27 Nordeste 0 -- -- 49
2017-08-01 18:00:00 26.2 12 Nordeste 32 Nordeste 0 -- -- 49
2017-08-01 17:00:00 26.4 16 Este 30 Este 0 -- -- 49
2017-08-01 16:00:00 26.7 16 Este 27 Este 0 -- -- 50
2017-08-01 15:00:00 25.6 9 Nordeste 24 Este 0 -- -- 54
2017-08-01 14:00:00 25.3 8 Nordeste 19 Nordeste 0 -- -- 55
2017-08-01 13:00:00 23.7 9 Este 21 Este 0 -- -- 61
2017-08-01 12:00:00 25.1 8 Norte 19 Este 0 -- -- 57
2017-08-01 11:00:00 25.1 9 Oeste 21 Sudoeste 0 -- -- 51
2017-08-01 10:00:00 25.3 12 Sudoeste 23 Sudoeste 0 -- -- 57
2017-08-01 09:00:00 22.4 12 Sudoeste 19 Sur 0 -- -- 67
2017-08-01 08:00:00 17.9 0 Calma 19 Sudoeste 0 -- -- 83
2017-08-01 07:00:00 17.7 17 Sudoeste 23 Sudoeste 0 -- -- 85
2017-08-01 06:00:00 18.1 19 Sudoeste 22 Sudoeste 0 -- -- 81
2017-08-01 05:00:00 19.1 20 Sudoeste 24 Sudoeste 0 -- -- 77
2017-08-01 04:00:00 19.5 12 Sudoeste 22 Sudoeste 0 -- -- 73
2017-08-01 03:00:00 20.2 13 Sudoeste 20 Sudoeste 0 -- -- 71
2017-08-01 02:00:00 21.3 11 Sudoeste 18 Sudoeste 0 -- -- 68
2017-08-01 01:00:00 22.1 3 Oeste 17 Sudeste 0 -- -- 65
2017-08-01 00:00:00 23 9 Sur 16 Sur 0 -- -- 62
2017-07-31 23:00:00 24 9 Sudoeste 22 Sur 0 -- -- 57
2017-07-31 22:00:00 23.7 13 Sudoeste 17 Sudoeste 0 -- -- 34
2017-07-31 21:00:00 28.3 10 Oeste 29 Oeste 0 -- -- 19
2017-07-31 20:00:00 32 14 Oeste 37 Oeste 0 -- -- 17
2017-07-31 19:00:00 33.2 20 Sudoeste 43 Oeste 0 -- -- 18
2017-07-31 18:00:00 34.2 17 Sudoeste 48 Sudoeste 0 -- -- 17
2017-07-31 17:00:00 32.2 17 Sudoeste 35 Sur 0 -- -- 23
2017-07-31 16:00:00 29.6 15 Nordeste 42 Sur 0 -- -- 43
2017-07-31 15:00:00 34.3 21 Sudoeste 47 Sur 0 -- -- 20
2017-07-31 14:00:00 33.2 30 Sur 50 Sur 0 -- -- 21
2017-07-31 13:00:00 32.4 23 Sudoeste 43 Sur 0 -- -- 25
2017-07-31 12:00:00 30.8 21 Sur 44 Sur 0 -- -- 30
2017-07-31 11:00:00 29.5 13 Sur 26 Sur 0 -- -- 33
2017-07-31 10:00:00 26.6 15 Sur 31 Sur 0 -- -- 39
2017-07-31 09:00:00 24.5 12 Sur 26 Sur 0 -- -- 45
2017-07-31 08:00:00 21.2 16 Sudoeste 21 Sudoeste 0 -- -- 54
2017-07-31 07:00:00 19.9 16 Sudoeste 30 Sur 0 -- -- 59
2017-07-31 06:00:00 19.5 17 Sur 24 Sudoeste 0 -- -- 61
2017-07-31 05:00:00 19.2 6 Sur 13 Sur 0 -- -- 59
2017-07-31 04:00:00 21.6 12 Sur 21 Sudeste 0 -- -- 52
2017-07-31 03:00:00 22.2 13 Sur 21 Sur 0 -- -- 50
2017-07-31 02:00:00 22.3 13 Sudoeste 21 Sudoeste 0 -- -- 47
2017-07-31 01:00:00 22.3 13 Sudoeste 18 Sudoeste 0 -- -- 48
2017-07-31 00:00:00 23.1 8 Sudoeste 18 Oeste 0 -- -- 48
2017-07-30 23:00:00 24.8 10 Sur 26 Sur 0 -- -- 40
2017-07-30 22:00:00 26.2 10 Oeste 14 Oeste 0 -- -- 28
2017-07-30 21:00:00 27.8 9 Oeste 28 Noroeste 0 -- -- 26
2017-07-30 20:00:00 30.8 17 Noroeste 31 Noroeste 0 -- -- 23
2017-07-30 19:00:00 32 11 Noroeste 35 Oeste 0 -- -- 22
2017-07-30 18:00:00 33.8 15 Oeste 36 Oeste 0 -- -- 20
2017-07-30 17:00:00 33.9 12 Oeste 49 Sudoeste 0 -- -- 19
2017-07-30 16:00:00 34.5 15 Oeste 54 Sudoeste 0 -- -- 19
2017-07-30 15:00:00 34 15 Oeste 43 Noroeste 0 -- -- 20
2017-07-30 14:00:00 32.6 15 Sudoeste 32 Oeste 0 -- -- 21
2017-07-30 13:00:00 32.2 12 Oeste 36 Oeste 0 -- -- 21
2017-07-30 12:00:00 30.8 9 Sudoeste 23 Sudoeste 0 -- -- 24
2017-07-30 11:00:00 28.2 6 Norte 21 Noroeste 0 -- -- 33
2017-07-30 10:00:00 25.6 17 Norte 25 Noroeste 0 -- -- 36
2017-07-30 09:00:00 24.4 14 Norte 23 Norte 0 -- -- 37
2017-07-30 08:00:00 22 0 Calma 26 Sudoeste 0 -- -- 43
2017-07-30 07:00:00 19.5 19 Sudoeste 27 Sudoeste 0 -- -- 45
2017-07-30 06:00:00 20.2 2 Norte 20 Sudoeste 0 -- -- 41
2017-07-30 05:00:00 19.6 18 Sudoeste 22 Sudoeste 0 -- -- 42
2017-07-30 04:00:00 19.6 17 Sudoeste 24 Sudoeste 0 -- -- 41
2017-07-30 03:00:00 21.5 7 Oeste 14 Sudoeste 0 -- -- 45
2017-07-30 02:00:00 21.6 2 Norte 15 Sudoeste 0 -- -- 40
2017-07-30 01:00:00 22.7 13 Sudoeste 17 Sudoeste 0 -- -- 38
2017-07-30 00:00:00 21.5 12 Oeste 15 Oeste 0 -- -- 45
2017-07-29 23:00:00 22.9 7 Oeste 13 Noroeste 0 -- -- 48
2017-07-29 22:00:00 24.6 9 Noroeste 19 Este 0 -- -- 38
2017-07-29 21:00:00 26.9 6 Sudeste 42 Oeste 0 -- -- 45
2017-07-29 20:00:00 29.3 11 Oeste 22 Oeste 0 -- -- 23
2017-07-29 19:00:00 31.1 9 Oeste 34 Sudoeste 0 -- -- 20
2017-07-29 18:00:00 31.7 17 Sudoeste 35 Sudoeste 0 -- -- 21
2017-07-29 17:00:00 32.4 17 Oeste 33 Sudoeste 0 -- -- 20
2017-07-29 16:00:00 32.6 18 Noroeste 33 Noroeste 0 -- -- 21
2017-07-29 15:00:00 32.3 23 Sudoeste 40 Sudoeste 0 -- -- 20
2017-07-29 14:00:00 32.2 18 Oeste 41 Sudoeste 0 -- -- 24
2017-07-29 13:00:00 30.8 16 Oeste 33 Oeste 0 -- -- 29
2017-07-29 12:00:00 29.5 13 Oeste 27 Oeste 0 -- -- 31
2017-07-29 11:00:00 28.3 12 Sudoeste 23 Sudoeste 0 -- -- 33
2017-07-29 10:00:00 26.1 7 Oeste 14 Oeste 0 -- -- 40
2017-07-29 09:00:00 22.6 4 Nordeste 21 Sudoeste 0 -- -- 64
2017-07-29 08:00:00 19.1 18 Sudoeste 26 Sudoeste 0 -- -- 78
2017-07-29 07:00:00 16.5 23 Sudoeste 27 Sudoeste 0 -- -- 88
2017-07-29 06:00:00 17.7 9 Sudoeste 17 Sudoeste 0 -- -- 85
2017-07-29 05:00:00 17.1 8 Sur 10 Sur 0 -- -- 89
2017-07-29 04:00:00 17.8 5 Sur 12 Sudoeste 0 -- -- 85
2017-07-29 03:00:00 19 3 Sudoeste 12 Sudoeste 0 -- -- 79
2017-07-29 02:00:00 19.5 3 Sudeste 10 Sur 0 -- -- 77
2017-07-29 01:00:00 20.7 6 Oeste 13 Sur 0 -- -- 70
2017-07-29 00:00:00 21.1 7 Sur 12 Sudeste 0 -- -- 59
2017-07-28 23:00:00 22.3 6 Sudeste 15 Sur 0 -- -- 54
2017-07-28 22:00:00 23 10 Sur 14 Sudeste 0 -- -- 47
2017-07-28 21:00:00 25.1 10 Sur 23 Sudeste 0 -- -- 45
2017-07-28 20:00:00 27.2 15 Sudeste 27 Este 0 -- -- 41
2017-07-28 19:00:00 28 14 Este 27 Este 0 -- -- 41
2017-07-28 18:00:00 28.4 15 Este 28 Este 0 -- -- 42
2017-07-28 17:00:00 28.7 15 Nordeste 27 Nordeste 0 -- -- 41
2017-07-28 16:00:00 29 15 Este 27 Este 0 -- -- 41
2017-07-28 15:00:00 28.5 15 Nordeste 24 Este 0 -- -- 43
2017-07-28 14:00:00 28.5 14 Nordeste 23 Nordeste 0 -- -- 44
2017-07-28 13:00:00 28.1 10 Este 20 Nordeste 0 -- -- 43
2017-07-28 12:00:00 27.6 9 Norte 18 Norte 0 -- -- 41
2017-07-28 11:00:00 26.1 8 Norte 16 Noroeste 0 -- -- 46
2017-07-28 10:00:00 25.9 5 Nordeste 12 Este 0 -- -- 44
2017-07-28 09:00:00 23.1 7 Este 11 Este 0 -- -- 51
2017-07-28 08:00:00 19.6 9 Sur 14 Sur 0 -- -- 57
2017-07-28 07:00:00 17.3 5 Sur 11 Sudoeste 0 -- -- 63
2017-07-28 06:00:00 17.8 6 Sur 12 Sur 0 -- -- 62
2017-07-28 05:00:00 18.3 10 Sur 14 Sur 0 -- -- 57
2017-07-28 04:00:00 18 8 Sur 11 Sur 0 -- -- 58
2017-07-28 03:00:00 18.8 4 Sudoeste 9 Sur 0 -- -- 53
2017-07-28 02:00:00 19.2 6 Sur 8 Sur 0 -- -- 52
2017-07-28 01:00:00 20.3 3 Sudeste 10 Sudoeste 0 -- -- 48
2017-07-28 00:00:00 22.3 3 Sudoeste 12 Nordeste 0 -- -- 42
2017-07-27 23:00:00 22.1 4 Sur 9 Sur 0 -- -- 43
2017-07-27 22:00:00 23.2 8 Sur 14 Sudeste 0 -- -- 41
2017-07-27 21:00:00 26.1 8 Sudeste 18 Este 0 -- -- 37
2017-07-27 20:00:00 28 14 Este 23 Este 0 -- -- 33
2017-07-27 19:00:00 29.3 15 Este 24 Este 0 -- -- 32
2017-07-27 18:00:00 30 12 Este 29 Nordeste 0 -- -- 32
2017-07-27 17:00:00 31.2 8 Nordeste 32 Noroeste 0 -- -- 26
2017-07-27 16:00:00 31.3 9 Norte 28 Noroeste 0 -- -- 28
2017-07-27 15:00:00 29.8 13 Norte 30 Norte 0 -- -- 29
2017-07-27 14:00:00 29.2 16 Noroeste 34 Noroeste 0 -- -- 31
2017-07-27 13:00:00 28.5 16 Noroeste 30 Oeste 0 -- -- 32
2017-07-27 12:00:00 28.2 14 Oeste 26 Noroeste 0 -- -- 32
2017-07-27 11:00:00 27.3 9 Oeste 18 Oeste 0 -- -- 35
2017-07-27 10:00:00 25.8 8 Norte 21 Sudoeste 0 -- -- 40
2017-07-27 09:00:00 23.6 15 Sudoeste 24 Sudoeste 0 -- -- 47
2017-07-27 08:00:00 20 7 Sudoeste 26 Sudoeste 0 -- -- 60
2017-07-27 07:00:00 15.9 22 Sudoeste 26 Sudoeste 0 -- -- 70
2017-07-27 06:00:00 15.5 20 Sudoeste 23 Sudoeste 0 -- -- 71
2017-07-27 05:00:00 14.5 2 Sudeste 16 Sudoeste 0 -- -- 74
2017-07-27 04:00:00 14.8 3 Norte 14 Sudoeste 0 -- -- 72
2017-07-27 03:00:00 15.5 12 Sudoeste 14 Sudoeste 0 -- -- 71
2017-07-27 02:00:00 16.1 2 Noroeste 10 Sudoeste 0 -- -- 67
2017-07-27 01:00:00 16.2 7 Oeste 12 Noroeste 0 -- -- 67
2017-07-27 00:00:00 17.8 6 Norte 12 Sudoeste 0 -- -- 64
2017-07-26 23:00:00 17.6 6 Oeste 11 Noroeste 0 -- -- 66
2017-07-26 22:00:00 18.9 5 Noroeste 18 Norte 0 -- -- 61
2017-07-26 21:00:00 21 10 Norte 22 Norte 0 -- -- 54
2017-07-26 20:00:00 23.6 14 Norte 23 Norte 0 -- -- 46
2017-07-26 19:00:00 24.7 11 Norte 26 Norte 0 -- -- 42
2017-07-26 18:00:00 24.9 14 Norte 31 Norte 0 -- -- 44
2017-07-26 17:00:00 24.9 19 Norte 32 Noroeste 0 -- -- 42
2017-07-26 16:00:00 25.1 16 Noroeste 32 Norte 0 -- -- 41
2017-07-26 15:00:00 24.6 20 Noroeste 32 Noroeste 0 -- -- 42
2017-07-26 14:00:00 23.5 18 Noroeste 36 Noroeste 0 -- -- 42
2017-07-26 13:00:00 22.2 17 Noroeste 34 Noroeste 0 -- -- 45
2017-07-26 12:00:00 20.3 22 Noroeste 37 Noroeste 0 -- -- 50
2017-07-26 11:00:00 18.2 23 Noroeste 32 Noroeste 0 -- -- 50
2017-07-26 10:00:00 16.1 14 Noroeste 24 Noroeste 0 -- -- 59
2017-07-26 09:00:00 14 18 Noroeste 26 Noroeste 0 -- -- 67
2017-07-26 08:00:00 11.1 19 Noroeste 27 Noroeste 0 -- -- 81
2017-07-26 07:00:00 9.2 19 Noroeste 26 Noroeste 0 -- -- 88
2017-07-26 06:00:00 9.4 17 Noroeste 27 Noroeste 0 -- -- 88
2017-07-26 05:00:00 9.4 18 Noroeste 25 Noroeste 0 -- -- 89
2017-07-26 04:00:00 9.6 15 Noroeste 25 Noroeste 0 -- -- 88
2017-07-26 03:00:00 9.7 17 Noroeste 25 Noroeste 0 -- -- 87
2017-07-26 02:00:00 9.5 11 Noroeste 21 Noroeste 0 -- -- 88
2017-07-26 01:00:00 10.2 13 Noroeste 26 Noroeste 0 -- -- 86
2017-07-26 00:00:00 10.8 16 Noroeste 27 Noroeste 0 -- -- 84
2017-07-25 23:00:00 11.7 13 Noroeste 22 Noroeste 0 -- -- 79
2017-07-25 22:00:00 12.9 14 Noroeste 25 Norte 0 -- -- 74
2017-07-25 21:00:00 14 12 Noroeste 31 Norte 0 -- -- 69
2017-07-25 20:00:00 15.7 21 Norte 32 Norte 0 -- -- 64
2017-07-25 19:00:00 18.9 23 Norte 31 Norte 0 -- -- 53
2017-07-25 18:00:00 19 19 Norte 32 Norte 0 -- -- 53
2017-07-25 17:00:00 19.1 18 Norte 35 Noroeste 0 -- -- 52
2017-07-25 16:00:00 19.6 23 Norte 34 Norte 0 -- -- 52
2017-07-25 15:00:00 19.2 14 Norte 34 Noroeste 0 -- -- 50
2017-07-25 14:00:00 18.2 21 Norte 35 Noroeste 0 -- -- 52
2017-07-25 13:00:00 17.1 24 Norte 43 Norte 0 -- -- 56
2017-07-25 12:00:00 16.5 27 Norte 48 Norte 0 -- -- 58
2017-07-25 11:00:00 15.6 28 Norte 44 Norte 0 -- -- 63
2017-07-25 10:00:00 13.6 30 Noroeste 46 Noroeste 0 -- -- 70
2017-07-25 09:00:00 12.5 27 Norte 42 Norte 0 -- -- 75
2017-07-25 08:00:00 11.1 28 Noroeste 49 Noroeste 0 -- -- 81
2017-07-25 07:00:00 9.4 27 Noroeste 44 Noroeste 0 -- -- 90
2017-07-25 06:00:00 9.7 22 Noroeste 40 Norte 0 -- -- 87
2017-07-25 05:00:00 9.9 24 Noroeste 37 Noroeste 0 -- -- 87
2017-07-25 04:00:00 10 19 Noroeste 33 Noroeste 0 -- -- 88
2017-07-25 03:00:00 10.5 19 Noroeste 32 Noroeste 0 -- -- 91
2017-07-25 02:00:00 11.3 21 Noroeste 36 Noroeste 0 -- -- 91
2017-07-25 01:00:00 11.8 22 Noroeste 38 Noroeste 0 -- -- 89
2017-07-25 00:00:00 12.1 23 Norte 36 Norte 0 -- -- 86
2017-07-24 23:00:00 13 23 Norte 45 Norte 0 -- -- 85
2017-07-24 22:00:00 13.8 28 Norte 47 Norte 0 -- -- 81
2017-07-24 21:00:00 15.4 34 Norte 50 Norte 0 -- -- 73
2017-07-24 20:00:00 18.2 26 Norte 47 Noroeste 0 -- -- 62
2017-07-24 19:00:00 19.8 22 Norte 41 Norte 0 -- -- 57
2017-07-24 18:00:00 21.3 21 Norte 40 Nordeste 0 -- -- 52
2017-07-24 17:00:00 21.6 22 Norte 37 Norte 0 -- -- 50
2017-07-24 16:00:00 20.8 18 Norte 32 Norte 0 -- -- 54
2017-07-24 15:00:00 20 18 Norte 31 Noroeste 0 -- -- 57
2017-07-24 14:00:00 20.4 20 Norte 38 Norte 0 -- -- 60
2017-07-24 13:00:00 19.1 18 Norte 31 Noroeste 0 -- -- 65
2017-07-24 12:00:00 18.5 17 Noroeste 28 Noroeste 0 -- -- 67
2017-07-24 11:00:00 18.1 17 Norte 29 Norte 0 -- -- 68
2017-07-24 10:00:00 17.4 19 Norte 27 Norte 0 -- -- 72
2017-07-24 09:00:00 16.3 15 Norte 23 Noroeste 0 -- -- 79
2017-07-24 08:00:00 15 13 Noroeste 22 Noroeste 0 -- -- 86
2017-07-24 07:00:00 13 12 Noroeste 21 Noroeste 0 -- -- 93
2017-07-24 06:00:00 12.5 11 Noroeste 28 Noroeste 0 -- -- 93
2017-07-24 05:00:00 12.4 13 Noroeste 28 Noroeste 0 -- -- 92
2017-07-24 04:00:00 12.8 14 Noroeste 28 Noroeste 0 -- -- 87
2017-07-24 03:00:00 13.2 13 Noroeste 29 Noroeste 0 -- -- 82
2017-07-24 02:00:00 13.5 17 Noroeste 27 Noroeste 0 -- -- 80
2017-07-24 01:00:00 14.2 14 Noroeste 29 Noroeste 0 -- -- 74
2017-07-24 00:00:00 15.7 13 Noroeste 21 Noroeste 0 -- -- 66
2017-07-23 23:00:00 17.5 12 Noroeste 21 Noroeste 0 -- -- 66
2017-07-23 22:00:00 19.2 9 Norte 19 Norte 0 -- -- 68
2017-07-23 21:00:00 20.8 6 Norte 14 Nordeste 0 -- -- 61
2017-07-23 20:00:00 23 10 Nordeste 19 Nordeste 0 -- -- 54
2017-07-23 19:00:00 23.2 11 Nordeste 19 Nordeste 0 -- -- 54
2017-07-23 18:00:00 24.7 9 Norte 17 Sudeste 0.2 -- -- 47
2017-07-23 17:00:00 22.7 11 Sudeste 18 Nordeste 0 -- -- 63
2017-07-23 16:00:00 19.8 13 Este 20 Este 0 -- -- 74
2017-07-23 15:00:00 17.1 4 Norte 21 Este 0.2 -- -- 82
2017-07-23 14:00:00 18.6 9 Este 19 Nordeste 0 -- -- 76
2017-07-23 13:00:00 22.3 10 Nordeste 21 Este 0 -- -- 62
2017-07-23 12:00:00 22.1 12 Este 21 Este 0 -- -- 66
2017-07-23 11:00:00 21.3 13 Este 22 Este 0 -- -- 68
2017-07-23 10:00:00 19.6 9 Este 18 Sudeste 0 -- -- 74
2017-07-23 09:00:00 17.7 11 Este 16 Este 0 -- -- 80
2017-07-23 08:00:00 15.8 5 Sudeste 9 Sudeste 0 -- -- 90
2017-07-23 07:00:00 13.4 7 Sur 12 Sudeste 0 -- -- 93
2017-07-23 06:00:00 13.8 5 Sudeste 10 Sur 0 -- -- 93
2017-07-23 05:00:00 14.7 6 Sur 10 Sudeste 0 -- -- 92
2017-07-23 04:00:00 15.5 7 Sur 10 Sudeste 0 -- -- 92
2017-07-23 03:00:00 16.4 5 Sudeste 9 Sur 0 -- -- 94
2017-07-23 02:00:00 17.3 0 Calma 7 Norte 0 -- -- 92
2017-07-23 01:00:00 17.7 6 Sur 11 Noroeste 0 -- -- 89
2017-07-23 00:00:00 18.3 0 Calma 9 Sur 0 -- -- 84
2017-07-22 23:00:00 18.9 6 Sur 9 Sur 0 -- -- 81
2017-07-22 22:00:00 20.3 4 Sur 12 Este 0 -- -- 73
2017-07-22 21:00:00 23 6 Este 18 Este 0 -- -- 59
2017-07-22 20:00:00 25.2 10 Este 22 Este 0 -- -- 51
2017-07-22 19:00:00 25.7 12 Este 23 Este 0 -- -- 53
2017-07-22 18:00:00 25.3 15 Nordeste 28 Sudeste 0 -- -- 59
2017-07-22 17:00:00 26 9 Este 26 Nordeste 0 -- -- 55
2017-07-22 16:00:00 24.5 17 Nordeste 28 Este 0 -- -- 59
2017-07-22 15:00:00 24.8 10 Este 28 Este 0 -- -- 58
2017-07-22 14:00:00 29.2 11 Sudoeste 32 Sudoeste 0 -- -- 30
2017-07-22 13:00:00 27.8 9 Sudoeste 29 Sudoeste 0 -- -- 31
2017-07-22 12:00:00 26.4 13 Sudoeste 26 Oeste 0 -- -- 33
2017-07-22 11:00:00 24.8 8 Sudoeste 17 Sudoeste 0 -- -- 46
2017-07-22 10:00:00 20.5 11 Sudoeste 22 Sudoeste 0 -- -- 61
2017-07-22 09:00:00 18.1 18 Sudoeste 22 Sudoeste 0 -- -- 83
2017-07-22 08:00:00 16 17 Sudoeste 22 Sudoeste 0 -- -- 91
2017-07-22 07:00:00 14.3 19 Sudoeste 24 Sudoeste 0 -- -- 94
2017-07-22 06:00:00 14.7 20 Sudoeste 24 Sudoeste 0 -- -- 95
2017-07-22 05:00:00 15.4 19 Sudoeste 29 Sur 0 -- -- 93
2017-07-22 04:00:00 16.2 23 Sudoeste 32 Sur 0 -- -- 92
2017-07-22 03:00:00 16.2 24 Sudoeste 30 Sur 0 -- -- 90
2017-07-22 02:00:00 15.6 17 Sudoeste 26 Sudoeste 0 -- -- 86
2017-07-22 01:00:00 16.9 22 Sudoeste 24 Sudoeste 0 -- -- 83
2017-07-22 00:00:00 18.4 19 Sudoeste 26 Sur 0 -- -- 79